sensor_id;sensor_type;location;lat;lon;timestamp;pressure;altitude;pressure_sealevel;temperature;humidity
47080;BME280;33067;49.296;14.470;2023-04-20T00:01:50;97053.69;;;8.30;40.46
47080;BME280;33067;49.296;14.470;2023-04-20T00:04:16;97045.12;;;8.49;40.33
47080;BME280;33067;49.296;14.470;2023-04-20T00:06:42;97041.06;;;8.45;40.16
47080;BME280;33067;49.296;14.470;2023-04-20T00:09:07;97042.47;;;9.02;39.41
47080;BME280;33067;49.296;14.470;2023-04-20T00:11:32;97037.68;;;8.90;39.30
47080;BME280;33067;49.296;14.470;2023-04-20T00:13:57;97039.35;;;8.95;39.59
47080;BME280;33067;49.296;14.470;2023-04-20T00:16:24;97037.99;;;8.94;39.74
47080;BME280;33067;49.296;14.470;2023-04-20T00:18:49;97032.57;;;9.45;39.39
47080;BME280;33067;49.296;14.470;2023-04-20T00:21:14;97028.27;;;8.24;40.38
47080;BME280;33067;49.296;14.470;2023-04-20T00:23:40;97029.80;;;8.17;40.54
47080;BME280;33067;49.296;14.470;2023-04-20T00:26:05;97025.91;;;8.00;40.76
47080;BME280;33067;49.296;14.470;2023-04-20T00:28:30;97025.63;;;8.62;40.32
47080;BME280;33067;49.296;14.470;2023-04-20T00:30:56;97018.97;;;8.03;40.56
47080;BME280;33067;49.296;14.470;2023-04-20T00:33:21;97018.07;;;7.85;41.14
47080;BME280;33067;49.296;14.470;2023-04-20T00:35:47;97020.40;;;7.60;41.67
47080;BME280;33067;49.296;14.470;2023-04-20T00:38:12;97022.24;;;7.26;42.22
47080;BME280;33067;49.296;14.470;2023-04-20T00:40:37;97026.36;;;7.48;41.97
47080;BME280;33067;49.296;14.470;2023-04-20T00:43:09;97027.91;;;7.53;41.80
47080;BME280;33067;49.296;14.470;2023-04-20T00:45:28;97025.79;;;7.40;41.91
47080;BME280;33067;49.296;14.470;2023-04-20T00:47:53;97026.94;;;7.20;42.31
47080;BME280;33067;49.296;14.470;2023-04-20T00:50:19;97022.61;;;7.74;41.79
47080;BME280;33067;49.296;14.470;2023-04-20T00:52:44;97018.42;;;8.02;41.33
47080;BME280;33067;49.296;14.470;2023-04-20T00:55:09;97019.32;;;8.26;41.04
47080;BME280;33067;49.296;14.470;2023-04-20T00:57:35;97018.36;;;7.70;41.27
47080;BME280;33067;49.296;14.470;2023-04-20T01:00:00;97022.99;;;7.95;41.52
47080;BME280;33067;49.296;14.470;2023-04-20T01:02:26;97026.18;;;7.74;41.70
47080;BME280;33067;49.296;14.470;2023-04-20T01:04:51;97018.87;;;7.84;41.62
47080;BME280;33067;49.296;14.470;2023-04-20T01:07:16;97017.32;;;7.71;41.61
47080;BME280;33067;49.296;14.470;2023-04-20T01:09:43;97018.12;;;7.42;41.97
47080;BME280;33067;49.296;14.470;2023-04-20T01:12:08;97011.73;;;7.65;41.65
47080;BME280;33067;49.296;14.470;2023-04-20T01:14:32;97005.05;;;8.00;41.29
47080;BME280;33067;49.296;14.470;2023-04-20T01:16:58;97002.21;;;8.04;40.89
47080;BME280;33067;49.296;14.470;2023-04-20T01:19:23;97001.80;;;7.73;41.05
47080;BME280;33067;49.296;14.470;2023-04-20T01:21:49;96999.31;;;7.96;41.41
47080;BME280;33067;49.296;14.470;2023-04-20T01:24:14;96995.68;;;8.06;41.15
47080;BME280;33067;49.296;14.470;2023-04-20T01:26:40;96996.46;;;7.24;41.92
47080;BME280;33067;49.296;14.470;2023-04-20T01:29:06;96996.48;;;6.86;42.82
47080;BME280;33067;49.296;14.470;2023-04-20T01:31:33;96994.97;;;7.10;43.29
47080;BME280;33067;49.296;14.470;2023-04-20T01:33:56;96989.11;;;6.79;43.77
47080;BME280;33067;49.296;14.470;2023-04-20T01:36:21;96989.43;;;7.12;44.08
47080;BME280;33067;49.296;14.470;2023-04-20T01:38:47;96992.70;;;6.97;43.95
47080;BME280;33067;49.296;14.470;2023-04-20T01:41:13;96996.05;;;7.02;44.20
47080;BME280;33067;49.296;14.470;2023-04-20T01:43:39;96994.23;;;7.16;43.73
47080;BME280;33067;49.296;14.470;2023-04-20T01:46:04;96993.45;;;7.05;44.47
47080;BME280;33067;49.296;14.470;2023-04-20T01:48:29;96990.60;;;6.84;44.60
47080;BME280;33067;49.296;14.470;2023-04-20T01:50:55;96984.11;;;6.71;44.96
47080;BME280;33067;49.296;14.470;2023-04-20T01:53:21;96980.75;;;7.05;44.40
47080;BME280;33067;49.296;14.470;2023-04-20T01:55:46;96978.69;;;7.39;44.03
47080;BME280;33067;49.296;14.470;2023-04-20T01:58:10;96974.40;;;7.70;43.71
47080;BME280;33067;49.296;14.470;2023-04-20T02:00:36;96969.23;;;7.65;43.34
47080;BME280;33067;49.296;14.470;2023-04-20T02:03:02;96964.67;;;7.63;43.36
47080;BME280;33067;49.296;14.470;2023-04-20T02:05:27;96963.96;;;7.64;43.83
47080;BME280;33067;49.296;14.470;2023-04-20T02:07:53;96967.06;;;7.83;43.64
47080;BME280;33067;49.296;14.470;2023-04-20T02:13:01;96962.24;;;7.23;43.75
47080;BME280;33067;49.296;14.470;2023-04-20T02:15:26;96965.48;;;6.89;44.56
47080;BME280;33067;49.296;14.470;2023-04-20T02:17:52;96966.82;;;7.11;44.29
47080;BME280;33067;49.296;14.470;2023-04-20T02:20:18;96970.99;;;6.94;44.34
47080;BME280;33067;49.296;14.470;2023-04-20T02:22:43;96971.88;;;7.34;44.01
47080;BME280;33067;49.296;14.470;2023-04-20T02:25:09;96973.68;;;7.50;43.75
47080;BME280;33067;49.296;14.470;2023-04-20T02:27:35;96977.58;;;7.34;43.75
47080;BME280;33067;49.296;14.470;2023-04-20T02:30:00;96977.03;;;6.98;44.05
47080;BME280;33067;49.296;14.470;2023-04-20T02:32:25;96983.09;;;7.03;44.45
47080;BME280;33067;49.296;14.470;2023-04-20T02:34:50;96981.45;;;7.42;44.38
47080;BME280;33067;49.296;14.470;2023-04-20T02:37:15;96981.32;;;7.33;44.11
47080;BME280;33067;49.296;14.470;2023-04-20T02:39:41;96980.94;;;7.34;44.28
47080;BME280;33067;49.296;14.470;2023-04-20T02:42:07;96974.94;;;7.40;44.50
47080;BME280;33067;49.296;14.470;2023-04-20T02:44:32;96969.13;;;7.30;44.75
47080;BME280;33067;49.296;14.470;2023-04-20T02:46:59;96968.56;;;7.26;44.96
47080;BME280;33067;49.296;14.470;2023-04-20T02:49:23;96967.82;;;7.50;44.37
47080;BME280;33067;49.296;14.470;2023-04-20T02:51:48;96969.17;;;7.53;44.16
47080;BME280;33067;49.296;14.470;2023-04-20T02:54:13;96970.39;;;7.78;43.91
47080;BME280;33067;49.296;14.470;2023-04-20T02:56:39;96968.74;;;8.06;43.82
47080;BME280;33067;49.296;14.470;2023-04-20T02:59:04;96968.89;;;7.90;43.75
47080;BME280;33067;49.296;14.470;2023-04-20T03:01:30;96969.63;;;7.46;44.30
47080;BME280;33067;49.296;14.470;2023-04-20T03:03:55;96971.69;;;7.21;44.40
47080;BME280;33067;49.296;14.470;2023-04-20T03:06:21;96978.29;;;7.37;44.57
47080;BME280;33067;49.296;14.470;2023-04-20T03:08:46;96979.76;;;7.44;44.66
47080;BME280;33067;49.296;14.470;2023-04-20T03:11:11;96981.63;;;7.55;44.43
47080;BME280;33067;49.296;14.470;2023-04-20T03:13:37;96981.46;;;7.47;44.35
47080;BME280;33067;49.296;14.470;2023-04-20T03:16:04;96979.62;;;7.68;44.08
47080;BME280;33067;49.296;14.470;2023-04-20T03:18:28;96977.69;;;8.04;43.84
47080;BME280;33067;49.296;14.470;2023-04-20T03:20:55;96976.42;;;7.80;43.67
47080;BME280;33067;49.296;14.470;2023-04-20T03:23:19;96972.68;;;8.11;43.69
47080;BME280;33067;49.296;14.470;2023-04-20T03:25:44;96970.72;;;8.21;43.63
47080;BME280;33067;49.296;14.470;2023-04-20T03:28:10;96971.56;;;8.06;43.66
47080;BME280;33067;49.296;14.470;2023-04-20T03:30:36;96969.29;;;7.93;44.07
47080;BME280;33067;49.296;14.470;2023-04-20T03:33:01;96970.10;;;8.20;43.73
47080;BME280;33067;49.296;14.470;2023-04-20T03:35:27;96969.77;;;8.58;43.61
47080;BME280;33067;49.296;14.470;2023-04-20T03:37:52;96967.40;;;8.28;43.61
47080;BME280;33067;49.296;14.470;2023-04-20T03:40:18;96967.47;;;8.31;43.64
47080;BME280;33067;49.296;14.470;2023-04-20T03:42:43;96970.39;;;8.42;43.58
47080;BME280;33067;49.296;14.470;2023-04-20T03:45:10;96967.13;;;8.44;43.63
47080;BME280;33067;49.296;14.470;2023-04-20T03:47:34;96966.61;;;8.46;43.62
47080;BME280;33067;49.296;14.470;2023-04-20T03:50:00;96966.17;;;8.30;44.07
47080;BME280;33067;49.296;14.470;2023-04-20T03:52:25;96967.97;;;8.43;44.03
47080;BME280;33067;49.296;14.470;2023-04-20T03:54:51;96966.34;;;8.51;43.75
47080;BME280;33067;49.296;14.470;2023-04-20T03:57:16;96968.99;;;8.42;44.45
47080;BME280;33067;49.296;14.470;2023-04-20T03:59:41;96971.35;;;8.55;43.67
47080;BME280;33067;49.296;14.470;2023-04-20T04:02:07;96972.00;;;8.40;44.23
47080;BME280;33067;49.296;14.470;2023-04-20T04:04:32;96974.03;;;8.63;44.36
47080;BME280;33067;49.296;14.470;2023-04-20T04:06:58;96975.20;;;8.45;44.27
47080;BME280;33067;49.296;14.470;2023-04-20T04:09:24;96976.01;;;8.56;44.23
47080;BME280;33067;49.296;14.470;2023-04-20T04:11:48;96978.27;;;8.62;44.15
47080;BME280;33067;49.296;14.470;2023-04-20T04:14:13;96975.69;;;8.08;44.92
47080;BME280;33067;49.296;14.470;2023-04-20T04:16:39;96971.37;;;7.92;45.23
47080;BME280;33067;49.296;14.470;2023-04-20T04:19:04;96969.99;;;7.82;45.41
47080;BME280;33067;49.296;14.470;2023-04-20T04:21:30;96968.49;;;7.96;45.02
47080;BME280;33067;49.296;14.470;2023-04-20T04:23:55;96965.55;;;8.36;44.98
47080;BME280;33067;49.296;14.470;2023-04-20T04:26:20;96962.24;;;8.26;44.87
47080;BME280;33067;49.296;14.470;2023-04-20T04:28:46;96964.21;;;8.61;44.83
47080;BME280;33067;49.296;14.470;2023-04-20T04:31:12;96963.55;;;8.54;44.60
47080;BME280;33067;49.296;14.470;2023-04-20T04:33:37;96966.51;;;8.41;44.76
47080;BME280;33067;49.296;14.470;2023-04-20T04:36:03;96963.81;;;8.02;45.45
47080;BME280;33067;49.296;14.470;2023-04-20T04:38:28;96963.26;;;8.09;45.50
47080;BME280;33067;49.296;14.470;2023-04-20T04:40:53;96963.26;;;7.91;45.74
47080;BME280;33067;49.296;14.470;2023-04-20T04:43:18;96964.86;;;7.46;46.20
47080;BME280;33067;49.296;14.470;2023-04-20T04:45:44;96964.29;;;7.76;46.30
47080;BME280;33067;49.296;14.470;2023-04-20T04:48:10;96967.58;;;7.27;47.04
47080;BME280;33067;49.296;14.470;2023-04-20T04:50:36;96969.73;;;7.44;46.84
47080;BME280;33067;49.296;14.470;2023-04-20T04:53:01;96971.70;;;7.69;46.75
47080;BME280;33067;49.296;14.470;2023-04-20T04:55:27;96972.30;;;7.82;46.53
47080;BME280;33067;49.296;14.470;2023-04-20T04:57:52;96978.36;;;7.59;46.59
47080;BME280;33067;49.296;14.470;2023-04-20T05:00:18;96983.82;;;7.54;46.46
47080;BME280;33067;49.296;14.470;2023-04-20T05:02:43;96984.43;;;7.56;46.77
47080;BME280;33067;49.296;14.470;2023-04-20T05:05:08;96986.62;;;8.12;46.59
47080;BME280;33067;49.296;14.470;2023-04-20T05:07:34;96986.25;;;7.81;46.61
47080;BME280;33067;49.296;14.470;2023-04-20T05:09:59;96984.23;;;7.76;46.46
47080;BME280;33067;49.296;14.470;2023-04-20T05:12:24;96985.58;;;8.07;46.69
47080;BME280;33067;49.296;14.470;2023-04-20T05:14:50;96982.74;;;8.11;46.21
47080;BME280;33067;49.296;14.470;2023-04-20T05:17:15;96984.37;;;7.69;46.72
47080;BME280;33067;49.296;14.470;2023-04-20T05:19:41;96981.37;;;7.49;47.61
47080;BME280;33067;49.296;14.470;2023-04-20T05:22:07;96983.32;;;7.47;47.47
47080;BME280;33067;49.296;14.470;2023-04-20T05:24:34;96984.44;;;7.82;47.45
47080;BME280;33067;49.296;14.470;2023-04-20T05:26:57;96987.20;;;7.94;47.23
47080;BME280;33067;49.296;14.470;2023-04-20T05:29:24;96989.83;;;8.14;46.95
47080;BME280;33067;49.296;14.470;2023-04-20T05:31:51;96990.78;;;7.86;47.35
47080;BME280;33067;49.296;14.470;2023-04-20T05:34:14;96989.50;;;8.13;46.83
47080;BME280;33067;49.296;14.470;2023-04-20T05:36:39;96992.36;;;8.40;46.19
47080;BME280;33067;49.296;14.470;2023-04-20T05:39:05;96990.20;;;8.72;46.02
47080;BME280;33067;49.296;14.470;2023-04-20T05:41:30;96990.64;;;8.49;46.16
47080;BME280;33067;49.296;14.470;2023-04-20T05:43:56;96993.89;;;8.76;46.25
47080;BME280;33067;49.296;14.470;2023-04-20T05:46:22;96993.47;;;7.65;45.97
47080;BME280;33067;49.296;14.470;2023-04-20T05:48:47;96997.73;;;9.38;44.97
47080;BME280;33067;49.296;14.470;2023-04-20T05:51:13;96995.70;;;9.14;45.43
47080;BME280;33067;49.296;14.470;2023-04-20T05:53:38;96993.70;;;8.66;45.69
47080;BME280;33067;49.296;14.470;2023-04-20T05:56:04;96993.90;;;9.14;45.43
47080;BME280;33067;49.296;14.470;2023-04-20T05:58:31;96992.23;;;9.18;45.29
47080;BME280;33067;49.296;14.470;2023-04-20T06:00:55;96991.37;;;8.82;45.04
47080;BME280;33067;49.296;14.470;2023-04-20T06:03:20;96984.72;;;9.08;45.60
47080;BME280;33067;49.296;14.470;2023-04-20T06:05:45;96985.95;;;9.26;45.41
47080;BME280;33067;49.296;14.470;2023-04-20T06:08:10;96983.24;;;8.93;45.74
47080;BME280;33067;49.296;14.470;2023-04-20T06:10:36;96981.50;;;8.49;46.44
47080;BME280;33067;49.296;14.470;2023-04-20T06:13:02;96978.21;;;8.86;46.38
47080;BME280;33067;49.296;14.470;2023-04-20T06:15:27;96979.09;;;8.47;46.95
47080;BME280;33067;49.296;14.470;2023-04-20T06:17:53;96980.92;;;8.31;47.48
47080;BME280;33067;49.296;14.470;2023-04-20T06:20:18;96985.42;;;8.58;47.68
47080;BME280;33067;49.296;14.470;2023-04-20T06:22:43;96984.55;;;8.28;47.60
47080;BME280;33067;49.296;14.470;2023-04-20T06:25:09;96985.42;;;8.47;47.94
47080;BME280;33067;49.296;14.470;2023-04-20T06:27:34;96985.17;;;8.64;47.90
47080;BME280;33067;49.296;14.470;2023-04-20T06:29:59;96983.10;;;8.39;47.75
47080;BME280;33067;49.296;14.470;2023-04-20T06:32:24;96982.58;;;8.65;47.86
47080;BME280;33067;49.296;14.470;2023-04-20T06:34:50;96979.58;;;8.34;47.81
47080;BME280;33067;49.296;14.470;2023-04-20T06:37:15;96978.99;;;8.64;47.95
47080;BME280;33067;49.296;14.470;2023-04-20T06:39:41;96976.39;;;8.90;47.34
47080;BME280;33067;49.296;14.470;2023-04-20T06:42:06;96974.88;;;8.74;47.27
47080;BME280;33067;49.296;14.470;2023-04-20T06:44:32;96976.28;;;8.73;47.12
47080;BME280;33067;49.296;14.470;2023-04-20T06:46:59;96974.86;;;7.60;46.03
47080;BME280;33067;49.296;14.470;2023-04-20T06:49:22;96980.52;;;9.48;44.33
47080;BME280;33067;49.296;14.470;2023-04-20T06:51:48;96989.71;;;9.92;44.35
47080;BME280;33067;49.296;14.470;2023-04-20T06:54:14;96994.52;;;9.52;44.97
47080;BME280;33067;49.296;14.470;2023-04-20T06:56:39;96995.05;;;8.94;45.90
47080;BME280;33067;49.296;14.470;2023-04-20T06:59:05;96993.84;;;8.87;45.65
47080;BME280;33067;49.296;14.470;2023-04-20T07:01:30;96993.15;;;8.79;46.28
47080;BME280;33067;49.296;14.470;2023-04-20T07:03:55;96996.59;;;9.02;46.36
47080;BME280;33067;49.296;14.470;2023-04-20T07:06:20;96998.49;;;9.36;45.84
47080;BME280;33067;49.296;14.470;2023-04-20T07:08:46;96995.13;;;9.00;46.03
47080;BME280;33067;49.296;14.470;2023-04-20T07:11:11;96991.78;;;8.34;47.03
47080;BME280;33067;49.296;14.470;2023-04-20T07:13:37;96992.12;;;8.61;47.79
47080;BME280;33067;49.296;14.470;2023-04-20T07:16:02;96995.96;;;9.02;47.11
47080;BME280;33067;49.296;14.470;2023-04-20T07:18:28;96995.98;;;8.62;47.67
47080;BME280;33067;49.296;14.470;2023-04-20T07:20:53;96995.44;;;7.89;48.56
47080;BME280;33067;49.296;14.470;2023-04-20T07:23:18;96993.24;;;8.32;48.23
47080;BME280;33067;49.296;14.470;2023-04-20T07:25:44;96992.08;;;8.12;48.92
47080;BME280;33067;49.296;14.470;2023-04-20T07:28:09;96988.55;;;8.27;48.50
47080;BME280;33067;49.296;14.470;2023-04-20T07:30:34;96990.20;;;8.69;48.20
47080;BME280;33067;49.296;14.470;2023-04-20T07:33:00;96988.17;;;8.41;47.57
47080;BME280;33067;49.296;14.470;2023-04-20T07:35:26;96986.04;;;8.35;48.51
47080;BME280;33067;49.296;14.470;2023-04-20T07:37:51;96986.61;;;8.53;48.31
47080;BME280;33067;49.296;14.470;2023-04-20T07:40:16;96979.99;;;8.63;47.75
47080;BME280;33067;49.296;14.470;2023-04-20T07:42:42;96983.20;;;8.34;49.02
47080;BME280;33067;49.296;14.470;2023-04-20T07:45:12;96985.68;;;8.05;48.94
47080;BME280;33067;49.296;14.470;2023-04-20T07:47:34;96987.73;;;8.85;48.13
47080;BME280;33067;49.296;14.470;2023-04-20T07:49:59;96990.33;;;8.34;48.45
47080;BME280;33067;49.296;14.470;2023-04-20T07:52:24;96987.91;;;8.11;48.84
47080;BME280;33067;49.296;14.470;2023-04-20T07:54:49;96983.38;;;8.18;48.52
47080;BME280;33067;49.296;14.470;2023-04-20T07:57:15;96984.84;;;8.65;47.63
47080;BME280;33067;49.296;14.470;2023-04-20T07:59:41;96983.55;;;8.50;47.23
47080;BME280;33067;49.296;14.470;2023-04-20T08:02:07;96988.92;;;8.98;45.90
47080;BME280;33067;49.296;14.470;2023-04-20T08:04:31;96994.75;;;8.47;45.57
47080;BME280;33067;49.296;14.470;2023-04-20T08:06:56;96987.36;;;7.54;47.85
47080;BME280;33067;49.296;14.470;2023-04-20T08:09:22;96990.52;;;8.45;46.63
47080;BME280;33067;49.296;14.470;2023-04-20T08:11:47;96990.82;;;8.70;46.97
47080;BME280;33067;49.296;14.470;2023-04-20T08:14:14;96988.29;;;8.36;46.25
47080;BME280;33067;49.296;14.470;2023-04-20T08:16:38;96989.37;;;8.65;45.78
47080;BME280;33067;49.296;14.470;2023-04-20T08:19:03;96993.58;;;8.73;46.10
47080;BME280;33067;49.296;14.470;2023-04-20T08:21:29;96992.07;;;8.89;45.82
47080;BME280;33067;49.296;14.470;2023-04-20T08:23:54;96994.27;;;8.87;46.21
47080;BME280;33067;49.296;14.470;2023-04-20T08:26:20;96984.35;;;7.45;48.46
47080;BME280;33067;49.296;14.470;2023-04-20T08:28:45;96985.83;;;8.08;46.55
47080;BME280;33067;49.296;14.470;2023-04-20T08:31:11;96987.63;;;8.08;46.68
47080;BME280;33067;49.296;14.470;2023-04-20T08:33:36;96981.92;;;8.60;46.43
47080;BME280;33067;49.296;14.470;2023-04-20T08:36:01;96978.55;;;8.55;46.36
47080;BME280;33067;49.296;14.470;2023-04-20T08:38:27;96980.64;;;8.51;46.66
47080;BME280;33067;49.296;14.470;2023-04-20T08:40:52;96980.13;;;8.58;47.01
47080;BME280;33067;49.296;14.470;2023-04-20T08:43:18;96977.61;;;9.33;45.88
47080;BME280;33067;49.296;14.470;2023-04-20T08:45:45;96984.17;;;8.62;46.24
47080;BME280;33067;49.296;14.470;2023-04-20T08:48:09;96978.37;;;9.27;45.02
47080;BME280;33067;49.296;14.470;2023-04-20T08:50:34;96977.92;;;9.59;45.75
47080;BME280;33067;49.296;14.470;2023-04-20T08:52:59;96975.45;;;9.79;44.96
47080;BME280;33067;49.296;14.470;2023-04-20T08:55:25;96976.33;;;9.91;45.14
47080;BME280;33067;49.296;14.470;2023-04-20T08:57:50;96985.08;;;8.81;46.03
47080;BME280;33067;49.296;14.470;2023-04-20T09:00:16;96972.19;;;9.58;45.79
47080;BME280;33067;49.296;14.470;2023-04-20T09:02:50;96974.63;;;9.68;44.82
47080;BME280;33067;49.296;14.470;2023-04-20T09:05:07;96976.83;;;8.83;46.78
47080;BME280;33067;49.296;14.470;2023-04-20T09:07:32;96973.50;;;9.50;46.37
47080;BME280;33067;49.296;14.470;2023-04-20T09:09:59;96981.66;;;8.79;46.57
47080;BME280;33067;49.296;14.470;2023-04-20T09:12:22;96981.00;;;9.44;46.17
47080;BME280;33067;49.296;14.470;2023-04-20T09:14:48;96982.31;;;9.66;45.34
47080;BME280;33067;49.296;14.470;2023-04-20T09:17:14;96985.64;;;9.66;45.50
47080;BME280;33067;49.296;14.470;2023-04-20T09:19:40;96983.95;;;9.41;45.57
47080;BME280;33067;49.296;14.470;2023-04-20T09:22:04;96984.48;;;9.40;45.54
47080;BME280;33067;49.296;14.470;2023-04-20T09:24:31;96985.68;;;9.49;45.84
47080;BME280;33067;49.296;14.470;2023-04-20T09:26:55;96988.04;;;9.78;45.61
47080;BME280;33067;49.296;14.470;2023-04-20T09:29:22;96993.38;;;9.97;45.59
47080;BME280;33067;49.296;14.470;2023-04-20T09:31:46;96992.02;;;9.50;45.39
47080;BME280;33067;49.296;14.470;2023-04-20T09:34:12;96991.35;;;10.01;45.72
47080;BME280;33067;49.296;14.470;2023-04-20T09:36:38;96985.93;;;9.43;46.67
47080;BME280;33067;49.296;14.470;2023-04-20T09:39:06;96981.85;;;9.71;46.74
47080;BME280;33067;49.296;14.470;2023-04-20T09:41:28;96976.48;;;10.39;45.35
47080;BME280;33067;49.296;14.470;2023-04-20T09:43:53;96973.31;;;10.15;45.46
47080;BME280;33067;49.296;14.470;2023-04-20T09:46:18;96970.21;;;10.15;45.64
47080;BME280;33067;49.296;14.470;2023-04-20T09:48:44;96968.93;;;9.26;47.72
47080;BME280;33067;49.296;14.470;2023-04-20T09:51:09;96962.21;;;9.20;47.65
47080;BME280;33067;49.296;14.470;2023-04-20T09:53:35;96963.33;;;9.52;46.11
47080;BME280;33067;49.296;14.470;2023-04-20T09:56:00;96964.44;;;9.11;47.33
47080;BME280;33067;49.296;14.470;2023-04-20T09:58:25;96964.54;;;9.15;47.18
47080;BME280;33067;49.296;14.470;2023-04-20T10:00:51;96960.93;;;9.32;47.96
47080;BME280;33067;49.296;14.470;2023-04-20T10:03:16;96949.31;;;9.08;48.04
47080;BME280;33067;49.296;14.470;2023-04-20T10:05:42;96961.34;;;8.48;49.28
47080;BME280;33067;49.296;14.470;2023-04-20T10:08:07;96949.66;;;8.96;47.20
47080;BME280;33067;49.296;14.470;2023-04-20T10:10:43;96947.54;;;9.09;47.79
47080;BME280;33067;49.296;14.470;2023-04-20T10:12:59;96940.92;;;9.55;47.25
47080;BME280;33067;49.296;14.470;2023-04-20T10:15:35;96944.05;;;8.87;47.55
47080;BME280;33067;49.296;14.470;2023-04-20T10:17:50;96945.32;;;9.31;47.85
47080;BME280;33067;49.296;14.470;2023-04-20T10:20:20;96956.32;;;8.82;48.37
47080;BME280;33067;49.296;14.470;2023-04-20T10:22:40;96945.46;;;9.80;46.87
47080;BME280;33067;49.296;14.470;2023-04-20T10:25:13;96942.02;;;10.23;46.40
47080;BME280;33067;49.296;14.470;2023-04-20T10:27:31;96939.12;;;10.00;46.19
47080;BME280;33067;49.296;14.470;2023-04-20T10:29:56;96933.41;;;10.45;45.59
47080;BME280;33067;49.296;14.470;2023-04-20T10:32:23;96929.94;;;9.83;45.98
47080;BME280;33067;49.296;14.470;2023-04-20T10:34:46;96934.54;;;9.56;46.59
47080;BME280;33067;49.296;14.470;2023-04-20T10:37:13;96924.74;;;10.04;46.18
47080;BME280;33067;49.296;14.470;2023-04-20T10:39:43;96922.43;;;9.70;46.11
47080;BME280;33067;49.296;14.470;2023-04-20T10:42:03;96923.67;;;10.47;44.95
47080;BME280;33067;49.296;14.470;2023-04-20T10:44:27;96930.97;;;10.49;44.85
47080;BME280;33067;49.296;14.470;2023-04-20T10:46:53;96920.59;;;10.74;45.39
47080;BME280;33067;49.296;14.470;2023-04-20T10:49:18;96921.58;;;11.00;44.84
47080;BME280;33067;49.296;14.470;2023-04-20T10:51:47;96918.01;;;10.25;44.98
47080;BME280;33067;49.296;14.470;2023-04-20T10:54:09;96921.91;;;9.28;46.63
47080;BME280;33067;49.296;14.470;2023-04-20T10:56:37;96918.26;;;9.82;45.44
47080;BME280;33067;49.296;14.470;2023-04-20T10:59:05;96919.69;;;9.69;46.55
47080;BME280;33067;49.296;14.470;2023-04-20T11:01:30;96915.75;;;9.64;46.66
47080;BME280;33067;49.296;14.470;2023-04-20T11:03:51;96922.43;;;9.32;47.46
47080;BME280;33067;49.296;14.470;2023-04-20T11:06:16;96918.40;;;9.23;47.47
47080;BME280;33067;49.296;14.470;2023-04-20T11:08:42;96913.37;;;9.50;47.41
47080;BME280;33067;49.296;14.470;2023-04-20T11:11:17;96914.52;;;10.29;46.72
47080;BME280;33067;49.296;14.470;2023-04-20T11:13:31;96910.72;;;9.55;47.18
47080;BME280;33067;49.296;14.470;2023-04-20T11:15:57;96906.02;;;10.09;46.35
47080;BME280;33067;49.296;14.470;2023-04-20T11:18:22;96908.03;;;10.64;45.39
47080;BME280;33067;49.296;14.470;2023-04-20T11:20:49;96915.07;;;9.67;46.81
47080;BME280;33067;49.296;14.470;2023-04-20T11:23:13;96915.45;;;10.26;46.32
47080;BME280;33067;49.296;14.470;2023-04-20T11:25:47;96909.39;;;10.48;46.11
47080;BME280;33067;49.296;14.470;2023-04-20T11:28:05;96907.68;;;10.73;45.55
47080;BME280;33067;49.296;14.470;2023-04-20T11:30:38;96901.38;;;10.20;45.79
47080;BME280;33067;49.296;14.470;2023-04-20T11:32:56;96896.33;;;11.11;44.60
47080;BME280;33067;49.296;14.470;2023-04-20T11:35:21;96899.08;;;10.62;45.83
47080;BME280;33067;49.296;14.470;2023-04-20T11:37:47;96895.94;;;9.90;45.70
47080;BME280;33067;49.296;14.470;2023-04-20T11:40:12;96897.81;;;10.43;46.92
47080;BME280;33067;49.296;14.470;2023-04-20T11:42:37;96901.88;;;10.41;46.02
47080;BME280;33067;49.296;14.470;2023-04-20T11:45:04;96895.64;;;10.33;46.31
47080;BME280;33067;49.296;14.470;2023-04-20T11:47:28;96890.11;;;10.98;45.19
47080;BME280;33067;49.296;14.470;2023-04-20T11:49:54;96889.03;;;10.30;46.28
47080;BME280;33067;49.296;14.470;2023-04-20T11:52:19;96889.59;;;9.77;47.17
47080;BME280;33067;49.296;14.470;2023-04-20T11:54:44;96893.40;;;10.18;46.20
47080;BME280;33067;49.296;14.470;2023-04-20T11:57:10;96891.11;;;10.72;45.51
47080;BME280;33067;49.296;14.470;2023-04-20T11:59:35;96889.65;;;10.28;46.52
47080;BME280;33067;49.296;14.470;2023-04-20T12:02:01;96886.28;;;10.61;46.23
47080;BME280;33067;49.296;14.470;2023-04-20T12:04:27;96887.59;;;10.58;46.99
47080;BME280;33067;49.296;14.470;2023-04-20T12:06:52;96886.44;;;10.87;46.47
47080;BME280;33067;49.296;14.470;2023-04-20T12:09:17;96873.90;;;10.42;46.86
47080;BME280;33067;49.296;14.470;2023-04-20T12:11:43;96879.59;;;10.49;47.18
47080;BME280;33067;49.296;14.470;2023-04-20T12:14:09;96872.76;;;10.38;47.32
47080;BME280;33067;49.296;14.470;2023-04-20T12:16:34;96863.37;;;11.47;45.35
47080;BME280;33067;49.296;14.470;2023-04-20T12:18:59;96865.53;;;11.83;43.44
47080;BME280;33067;49.296;14.470;2023-04-20T12:21:24;96864.61;;;11.88;43.95
47080;BME280;33067;49.296;14.470;2023-04-20T12:23:50;96860.45;;;12.08;43.89
47080;BME280;33067;49.296;14.470;2023-04-20T12:26:15;96867.40;;;12.22;42.78
47080;BME280;33067;49.296;14.470;2023-04-20T12:28:40;96861.47;;;12.19;43.65
47080;BME280;33067;49.296;14.470;2023-04-20T12:31:06;96857.32;;;11.56;43.79
47080;BME280;33067;49.296;14.470;2023-04-20T12:33:31;96856.31;;;11.59;44.39
47080;BME280;33067;49.296;14.470;2023-04-20T12:35:57;96848.53;;;11.99;43.81
47080;BME280;33067;49.296;14.470;2023-04-20T12:38:22;96852.47;;;12.32;42.73
47080;BME280;33067;49.296;14.470;2023-04-20T12:40:48;96852.01;;;11.60;43.36
47080;BME280;33067;49.296;14.470;2023-04-20T12:43:13;96852.97;;;11.98;43.45
47080;BME280;33067;49.296;14.470;2023-04-20T12:45:39;96846.18;;;11.67;44.65
47080;BME280;33067;49.296;14.470;2023-04-20T12:48:04;96839.55;;;11.75;42.97
47080;BME280;33067;49.296;14.470;2023-04-20T12:50:30;96843.00;;;12.41;42.86